createdAt,value
2018-06-15T00:00:05.127Z,0
2018-06-15T00:00:17.528Z,0
2018-06-15T00:00:29.943Z,0
2018-06-15T00:00:42.378Z,0
2018-06-15T00:00:55.064Z,0
2018-06-15T00:01:07.502Z,0
2018-06-15T00:01:19.976Z,0
2018-06-15T00:01:32.385Z,0
2018-06-15T00:01:44.799Z,0
2018-06-15T00:01:57.213Z,0
2018-06-15T00:02:09.614Z,0
2018-06-15T00:02:22.061Z,0
2018-06-15T00:02:34.619Z,0
2018-06-15T00:02:47.045Z,0
2018-06-15T00:02:59.480Z,0
2018-06-15T00:03:11.896Z,0
2018-06-15T00:03:24.299Z,0
2018-06-15T00:03:36.717Z,0
2018-06-15T00:03:49.121Z,0
2018-06-15T00:04:01.515Z,0
2018-06-15T00:04:13.916Z,0
2018-06-15T00:04:26.339Z,0
2018-06-15T00:04:38.733Z,0
2018-06-15T00:04:51.192Z,0
2018-06-15T00:05:03.604Z,0
2018-06-15T00:05:15.994Z,0
2018-06-15T00:05:28.431Z,0
2018-06-15T00:05:40.837Z,0
2018-06-15T00:05:53.229Z,0
2018-06-15T00:06:05.654Z,0
2018-06-15T00:06:18.070Z,0
2018-06-15T00:06:30.468Z,0
2018-06-15T00:06:43.024Z,0
2018-06-15T00:06:55.424Z,0
2018-06-15T00:07:07.831Z,0
2018-06-15T00:07:20.234Z,0
2018-06-15T00:07:32.646Z,0
2018-06-15T00:07:45.059Z,0
2018-06-15T00:07:57.487Z,0
2018-06-15T00:08:09.905Z,0
2018-06-15T00:08:22.332Z,0
2018-06-15T00:08:34.731Z,0
2018-06-15T00:08:47.146Z,0
2018-06-15T00:08:59.537Z,0
2018-06-15T00:09:11.932Z,0
2018-06-15T00:09:24.342Z,0
2018-06-15T00:09:36.745Z,0
2018-06-15T00:09:49.137Z,0
2018-06-15T00:10:01.537Z,0
2018-06-15T00:10:13.979Z,0
2018-06-15T00:10:26.397Z,0
2018-06-15T00:10:38.817Z,0
2018-06-15T00:10:51.229Z,0
2018-06-15T00:11:03.631Z,0
2018-06-15T00:11:16.180Z,0
2018-06-15T00:11:28.605Z,0
2018-06-15T00:11:41.000Z,0
2018-06-15T00:11:53.424Z,0
2018-06-15T00:12:05.814Z,0
2018-06-15T00:12:18.200Z,0
2018-06-15T00:12:30.584Z,0
2018-06-15T00:12:42.999Z,0
2018-06-15T00:12:55.447Z,0
2018-06-15T00:13:07.878Z,0
2018-06-15T00:13:20.290Z,0
2018-06-15T00:13:32.720Z,0
2018-06-15T00:13:45.107Z,0
2018-06-15T00:13:57.525Z,0
2018-06-15T00:14:09.940Z,1.609344
2018-06-15T00:14:22.339Z,0
2018-06-15T00:14:34.752Z,0
2018-06-15T00:14:47.170Z,0
2018-06-15T00:14:59.570Z,1.609344
2018-06-15T00:15:11.961Z,3.218688
2018-06-15T00:15:24.375Z,1.609344
2018-06-15T00:15:36.779Z,1.609344
2018-06-15T00:15:49.185Z,0
2018-06-15T00:16:01.590Z,0
2018-06-15T00:16:13.999Z,0
2018-06-15T00:16:26.415Z,1.609344
2018-06-15T00:16:38.817Z,1.609344
2018-06-15T00:16:51.211Z,1.609344
2018-06-15T00:17:03.603Z,0
2018-06-15T00:17:16.004Z,1.609344
2018-06-15T00:17:28.450Z,0
2018-06-15T00:17:40.975Z,0
2018-06-15T00:17:53.403Z,0
2018-06-15T00:18:05.794Z,1.609344
2018-06-15T00:18:18.197Z,0
2018-06-15T00:18:30.597Z,1.609344
2018-06-15T00:18:42.997Z,1.609344
2018-06-15T00:18:55.424Z,0
2018-06-15T00:19:07.831Z,3.218688
2018-06-15T00:19:20.279Z,0
2018-06-15T00:19:32.750Z,0
2018-06-15T00:19:45.149Z,0
2018-06-15T00:19:57.571Z,3.218688
2018-06-15T00:20:09.980Z,4.828032
2018-06-15T00:20:22.375Z,3.218688
2018-06-15T00:20:34.771Z,6.437376
2018-06-15T00:20:47.347Z,3.218688
2018-06-15T00:20:59.731Z,1.609344
2018-06-15T00:21:12.129Z,1.609344
2018-06-15T00:21:24.549Z,1.609344
2018-06-15T00:21:36.972Z,1.609344
2018-06-15T00:21:49.350Z,1.609344
2018-06-15T00:22:01.808Z,1.609344
2018-06-15T00:22:14.215Z,1.609344
2018-06-15T00:22:26.758Z,0
2018-06-15T00:22:39.151Z,1.609344
2018-06-15T00:22:51.657Z,3.218688
2018-06-15T00:23:04.217Z,0
2018-06-15T00:23:16.613Z,0
2018-06-15T00:23:29.019Z,0
2018-06-15T00:23:41.460Z,1.609344
2018-06-15T00:23:53.908Z,1.609344
2018-06-15T00:24:06.328Z,3.218688
2018-06-15T00:24:18.737Z,1.609344
2018-06-15T00:24:31.136Z,1.609344
2018-06-15T00:24:43.535Z,1.609344
2018-06-15T00:24:55.947Z,3.218688
2018-06-15T00:25:08.341Z,1.609344
2018-06-15T00:25:20.776Z,1.609344
2018-06-15T00:25:33.212Z,3.218688
2018-06-15T00:25:45.628Z,1.609344
2018-06-15T00:25:58.044Z,3.218688
2018-06-15T00:26:10.456Z,1.609344
2018-06-15T00:26:22.857Z,1.609344
2018-06-15T00:26:35.248Z,1.609344
2018-06-15T00:26:47.628Z,1.609344
2018-06-15T00:27:00.036Z,1.609344
2018-06-15T00:27:12.472Z,0
2018-06-15T00:27:24.865Z,3.218688
2018-06-15T00:27:37.271Z,1.609344
2018-06-15T00:27:49.693Z,3.218688
2018-06-15T00:28:02.280Z,1.609344
2018-06-15T00:28:14.669Z,1.609344
2018-06-15T00:28:27.075Z,0
2018-06-15T00:28:39.496Z,0
2018-06-15T00:28:51.921Z,1.609344
2018-06-15T00:29:04.319Z,6.437376
2018-06-15T00:29:16.719Z,6.437376
2018-06-15T00:29:29.307Z,3.218688
2018-06-15T00:29:41.756Z,1.609344
2018-06-15T00:29:54.254Z,3.218688
2018-06-15T00:30:06.651Z,1.609344
2018-06-15T00:30:19.061Z,1.609344
2018-06-15T00:30:31.473Z,1.609344
2018-06-15T00:30:43.892Z,0
2018-06-15T00:30:56.298Z,0
2018-06-15T00:31:08.796Z,1.609344
2018-06-15T00:31:21.314Z,3.218688
2018-06-15T00:31:33.822Z,3.218688
2018-06-15T00:31:46.233Z,1.609344
2018-06-15T00:31:58.727Z,1.609344
2018-06-15T00:32:11.141Z,1.609344
2018-06-15T00:32:23.565Z,1.609344
2018-06-15T00:32:35.958Z,1.609344
2018-06-15T00:32:48.367Z,1.609344
2018-06-15T00:33:00.777Z,1.609344
2018-06-15T00:33:13.168Z,6.437376
2018-06-15T00:33:25.562Z,3.218688
2018-06-15T00:33:37.967Z,1.609344
2018-06-15T00:33:50.382Z,1.609344
2018-06-15T00:34:02.813Z,1.609344
2018-06-15T00:34:15.218Z,1.609344
2018-06-15T00:34:27.676Z,3.218688
2018-06-15T00:34:40.074Z,1.609344
2018-06-15T00:34:52.480Z,1.609344
2018-06-15T00:35:04.967Z,1.609344
2018-06-15T00:35:17.382Z,0
2018-06-15T00:35:29.798Z,0
2018-06-15T00:35:42.250Z,1.609344
2018-06-15T00:35:54.665Z,0
2018-06-15T00:36:07.089Z,0
2018-06-15T00:36:19.565Z,1.609344
2018-06-15T00:36:31.982Z,1.609344
2018-06-15T00:36:44.391Z,1.609344
2018-06-15T00:36:56.815Z,1.609344
2018-06-15T00:37:09.222Z,0
2018-06-15T00:37:21.640Z,1.609344
2018-06-15T00:37:34.045Z,1.609344
2018-06-15T00:37:46.451Z,1.609344
2018-06-15T00:37:58.825Z,0
2018-06-15T00:38:11.232Z,0
2018-06-15T00:38:23.628Z,0
2018-06-15T00:38:36.052Z,3.218688
2018-06-15T00:38:48.459Z,1.609344
2018-06-15T00:39:00.874Z,1.609344
2018-06-15T00:39:13.290Z,4.828032
2018-06-15T00:39:25.755Z,6.437376
2018-06-15T00:39:38.294Z,6.437376
2018-06-15T00:39:50.690Z,3.218688
2018-06-15T00:40:03.087Z,4.828032
2018-06-15T00:40:15.494Z,3.218688
2018-06-15T00:40:27.902Z,8.04672
2018-06-15T00:40:40.311Z,3.218688
2018-06-15T00:40:52.708Z,6.437376
2018-06-15T00:41:05.145Z,8.04672
2018-06-15T00:41:17.552Z,8.04672
2018-06-15T00:41:29.952Z,8.04672
2018-06-15T00:41:42.346Z,8.04672
2018-06-15T00:41:54.760Z,8.04672
2018-06-15T00:42:07.161Z,6.437376
2018-06-15T00:42:19.560Z,9.656064
2018-06-15T00:42:31.975Z,6.437376
2018-06-15T00:42:44.385Z,6.437376
2018-06-15T00:42:56.787Z,6.437376
2018-06-15T00:43:09.175Z,6.437376
2018-06-15T00:43:21.590Z,8.04672
2018-06-15T00:43:33.994Z,8.04672
2018-06-15T00:43:46.408Z,9.656064
2018-06-15T00:43:58.833Z,14.484096
2018-06-15T00:44:11.220Z,12.874752
2018-06-15T00:44:23.627Z,19.312128
2018-06-15T00:44:36.075Z,14.484096
2018-06-15T00:44:48.509Z,14.484096
2018-06-15T00:45:00.956Z,14.484096
2018-06-15T00:45:13.367Z,16.09344
2018-06-15T00:45:25.781Z,20.921472
2018-06-15T00:45:38.218Z,19.312128
2018-06-15T00:45:50.627Z,14.484096
2018-06-15T00:46:03.262Z,17.702784
2018-06-15T00:46:15.684Z,11.265408
2018-06-15T00:46:28.079Z,14.484096
2018-06-15T00:46:40.473Z,19.312128
2018-06-15T00:46:52.878Z,14.484096
2018-06-15T00:47:05.323Z,14.484096
2018-06-15T00:47:17.765Z,9.656064
2018-06-15T00:47:30.164Z,9.656064
2018-06-15T00:47:42.548Z,8.04672
2018-06-15T00:47:54.952Z,12.874752
2018-06-15T00:48:07.360Z,12.874752
2018-06-15T00:48:19.747Z,14.484096
2018-06-15T00:48:32.299Z,14.484096
2018-06-15T00:48:44.764Z,20.921472
2018-06-15T00:48:57.442Z,11.265408
2018-06-15T00:49:10.117Z,8.04672
2018-06-15T00:49:22.610Z,11.265408
2018-06-15T00:49:35.019Z,9.656064
2018-06-15T00:49:47.449Z,11.265408
2018-06-15T00:49:59.924Z,19.312128
2018-06-15T00:50:12.342Z,16.09344
2018-06-15T00:50:24.763Z,12.874752
2018-06-15T00:50:37.157Z,6.437376
2018-06-15T00:50:49.565Z,8.04672
2018-06-15T00:51:01.974Z,14.484096
2018-06-15T00:51:14.395Z,11.265408
2018-06-15T00:51:26.796Z,9.656064
2018-06-15T00:51:39.248Z,9.656064
2018-06-15T00:51:51.693Z,11.265408
2018-06-15T00:52:04.097Z,8.04672
2018-06-15T00:52:16.512Z,12.874752
2018-06-15T00:52:29.006Z,11.265408
2018-06-15T00:52:41.443Z,14.484096
2018-06-15T00:52:53.895Z,8.04672
2018-06-15T00:53:06.325Z,11.265408
2018-06-15T00:53:18.755Z,11.265408
2018-06-15T00:53:31.182Z,8.04672
2018-06-15T00:53:43.594Z,14.484096
2018-06-15T00:53:56.015Z,8.04672
2018-06-15T00:54:08.481Z,12.874752
2018-06-15T00:54:20.879Z,12.874752
2018-06-15T00:54:33.275Z,8.04672
2018-06-15T00:54:45.687Z,8.04672
2018-06-15T00:54:58.099Z,9.656064
2018-06-15T00:55:10.497Z,17.702784
2018-06-15T00:55:22.937Z,12.874752
2018-06-15T00:55:35.350Z,12.874752
2018-06-15T00:55:47.897Z,9.656064
2018-06-15T00:56:00.312Z,12.874752
2018-06-15T00:56:12.738Z,9.656064
2018-06-15T00:56:25.162Z,9.656064
2018-06-15T00:56:37.560Z,6.437376
2018-06-15T00:56:50.003Z,8.04672
2018-06-15T00:57:02.424Z,3.218688
2018-06-15T00:57:14.836Z,3.218688
2018-06-15T00:57:27.250Z,4.828032
2018-06-15T00:57:39.655Z,8.04672
2018-06-15T00:57:52.081Z,4.828032
2018-06-15T00:58:04.512Z,8.04672
2018-06-15T00:58:16.905Z,6.437376
2018-06-15T00:58:29.296Z,11.265408
2018-06-15T00:58:41.690Z,8.04672
2018-06-15T00:58:54.084Z,8.04672
2018-06-15T00:59:06.533Z,6.437376
2018-06-15T00:59:18.941Z,3.218688
2018-06-15T00:59:31.347Z,4.828032
2018-06-15T00:59:43.738Z,3.218688
2018-06-15T00:59:56.157Z,6.437376
2018-06-15T01:00:08.589Z,3.218688
2018-06-15T01:00:21.001Z,9.656064
2018-06-15T01:00:33.568Z,6.437376
2018-06-15T01:00:45.974Z,11.265408
2018-06-15T01:00:58.544Z,11.265408
2018-06-15T01:01:10.974Z,3.218688
2018-06-15T01:01:23.405Z,6.437376
2018-06-15T01:01:35.815Z,12.874752
2018-06-15T01:01:48.254Z,12.874752
2018-06-15T01:02:00.676Z,12.874752
2018-06-15T01:02:13.070Z,9.656064
2018-06-15T01:02:25.471Z,16.09344
2018-06-15T01:02:38.021Z,6.437376
2018-06-15T01:02:50.444Z,4.828032
2018-06-15T01:03:02.835Z,9.656064
2018-06-15T01:03:15.247Z,9.656064
2018-06-15T01:03:27.654Z,6.437376
2018-06-15T01:03:40.070Z,12.874752
2018-06-15T01:03:52.520Z,9.656064
2018-06-15T01:04:04.950Z,20.921472
2018-06-15T01:04:17.360Z,22.530816
2018-06-15T01:04:29.768Z,24.14016
2018-06-15T01:04:42.165Z,16.09344
2018-06-15T01:04:54.573Z,14.484096
2018-06-15T01:05:06.992Z,16.09344
2018-06-15T01:05:19.392Z,14.484096
2018-06-15T01:05:31.800Z,9.656064
2018-06-15T01:05:44.199Z,6.437376
2018-06-15T01:05:56.595Z,11.265408
2018-06-15T01:06:08.999Z,6.437376
2018-06-15T01:06:21.409Z,6.437376
2018-06-15T01:06:33.810Z,8.04672
2018-06-15T01:06:46.449Z,17.702784
2018-06-15T01:06:58.848Z,14.484096
2018-06-15T01:07:11.262Z,11.265408
2018-06-15T01:07:23.668Z,8.04672
2018-06-15T01:07:36.084Z,6.437376
2018-06-15T01:07:48.528Z,8.04672
2018-06-15T01:08:00.944Z,8.04672
2018-06-15T01:08:13.330Z,12.874752
2018-06-15T01:08:25.735Z,12.874752
2018-06-15T01:08:38.115Z,9.656064
2018-06-15T01:08:50.535Z,9.656064
2018-06-15T01:09:02.951Z,9.656064
2018-06-15T01:09:15.343Z,12.874752
2018-06-15T01:09:27.753Z,8.04672
2018-06-15T01:09:40.157Z,8.04672
2018-06-15T01:09:52.569Z,9.656064
2018-06-15T01:10:04.967Z,8.04672
2018-06-15T01:10:17.364Z,16.09344
2018-06-15T01:10:29.754Z,14.484096
2018-06-15T01:10:42.167Z,17.702784
2018-06-15T01:10:54.620Z,6.437376
2018-06-15T01:11:07.033Z,16.09344
2018-06-15T01:11:19.447Z,16.09344
2018-06-15T01:11:31.843Z,16.09344
2018-06-15T01:11:44.266Z,9.656064
2018-06-15T01:11:56.690Z,16.09344
2018-06-15T01:12:09.142Z,11.265408
2018-06-15T01:12:21.562Z,20.921472
2018-06-15T01:12:33.971Z,14.484096
2018-06-15T01:12:46.405Z,12.874752
2018-06-15T01:12:58.816Z,14.484096
2018-06-15T01:13:11.224Z,11.265408
2018-06-15T01:13:23.659Z,9.656064
2018-06-15T01:13:36.064Z,8.04672
2018-06-15T01:13:48.510Z,14.484096
2018-06-15T01:14:00.913Z,12.874752
2018-06-15T01:14:13.331Z,14.484096
2018-06-15T01:14:25.745Z,9.656064
2018-06-15T01:14:38.176Z,14.484096
2018-06-15T01:14:50.614Z,19.312128
2018-06-15T01:15:03.188Z,16.09344
2018-06-15T01:15:15.608Z,12.874752
2018-06-15T01:15:28.038Z,11.265408
2018-06-15T01:15:40.489Z,16.09344
2018-06-15T01:15:52.878Z,12.874752
2018-06-15T01:16:05.275Z,9.656064
2018-06-15T01:16:17.668Z,14.484096
2018-06-15T01:16:30.079Z,14.484096
2018-06-15T01:16:42.494Z,6.437376
2018-06-15T01:16:54.900Z,8.04672
2018-06-15T01:17:07.289Z,12.874752
2018-06-15T01:17:19.694Z,11.265408
2018-06-15T01:17:32.230Z,9.656064
2018-06-15T01:17:44.636Z,9.656064
2018-06-15T01:17:57.089Z,11.265408
2018-06-15T01:18:09.514Z,11.265408
2018-06-15T01:18:21.918Z,11.265408
2018-06-15T01:18:34.341Z,9.656064
2018-06-15T01:18:46.786Z,6.437376
2018-06-15T01:18:59.186Z,19.312128
2018-06-15T01:19:11.580Z,16.09344
2018-06-15T01:19:24.026Z,17.702784
2018-06-15T01:19:36.423Z,9.656064
2018-06-15T01:19:48.892Z,14.484096
2018-06-15T01:20:01.489Z,17.702784
2018-06-15T01:20:13.904Z,17.702784
2018-06-15T01:20:26.319Z,11.265408
2018-06-15T01:20:39.231Z,9.656064
2018-06-15T01:20:52.226Z,17.702784
2018-06-15T01:21:04.648Z,19.312128
2018-06-15T01:21:17.053Z,16.09344
2018-06-15T01:21:29.465Z,14.484096
2018-06-15T01:21:41.844Z,9.656064
2018-06-15T01:21:54.230Z,12.874752
2018-06-15T01:22:06.662Z,11.265408
2018-06-15T01:22:19.061Z,22.530816
2018-06-15T01:22:31.481Z,14.484096
2018-06-15T01:22:43.893Z,11.265408
2018-06-15T01:22:56.742Z,11.265408
2018-06-15T01:23:09.182Z,6.437376
2018-06-15T01:23:21.607Z,11.265408
2018-06-15T01:23:34.002Z,9.656064
2018-06-15T01:23:46.412Z,8.04672
2018-06-15T01:23:58.825Z,6.437376
2018-06-15T01:24:11.225Z,9.656064
2018-06-15T01:24:23.632Z,11.265408
2018-06-15T01:24:36.068Z,9.656064
2018-06-15T01:24:48.485Z,8.04672
2018-06-15T01:25:00.929Z,9.656064
2018-06-15T01:25:13.329Z,6.437376
2018-06-15T01:25:25.733Z,11.265408
2018-06-15T01:25:38.296Z,16.09344
2018-06-15T01:25:50.694Z,12.874752
2018-06-15T01:26:03.164Z,11.265408
2018-06-15T01:26:15.565Z,19.312128
2018-06-15T01:26:27.995Z,8.04672
2018-06-15T01:26:40.395Z,11.265408
2018-06-15T01:26:52.818Z,12.874752
2018-06-15T01:27:05.224Z,6.437376
2018-06-15T01:27:17.635Z,11.265408
2018-06-15T01:27:30.031Z,12.874752
2018-06-15T01:27:42.422Z,14.484096
2018-06-15T01:27:54.826Z,11.265408
2018-06-15T01:28:07.251Z,17.702784
2018-06-15T01:28:19.700Z,11.265408
2018-06-15T01:28:32.166Z,14.484096
2018-06-15T01:28:44.584Z,11.265408
2018-06-15T01:28:56.981Z,16.09344
2018-06-15T01:29:09.385Z,12.874752
2018-06-15T01:29:21.785Z,9.656064
2018-06-15T01:29:34.182Z,6.437376
2018-06-15T01:29:46.605Z,8.04672
2018-06-15T01:29:59.019Z,14.484096
2018-06-15T01:30:11.468Z,11.265408
2018-06-15T01:30:23.860Z,14.484096
2018-06-15T01:30:36.270Z,6.437376
2018-06-15T01:30:48.702Z,12.874752
2018-06-15T01:31:01.109Z,9.656064
2018-06-15T01:31:13.521Z,12.874752
2018-06-15T01:31:25.926Z,8.04672
2018-06-15T01:31:38.360Z,11.265408
2018-06-15T01:31:50.783Z,9.656064
2018-06-15T01:32:03.181Z,4.828032
2018-06-15T01:32:15.590Z,9.656064
2018-06-15T01:32:28.208Z,9.656064
2018-06-15T01:32:40.615Z,11.265408
2018-06-15T01:32:53.014Z,12.874752
2018-06-15T01:33:05.461Z,12.874752
2018-06-15T01:33:17.865Z,12.874752
2018-06-15T01:33:30.298Z,9.656064
2018-06-15T01:33:42.703Z,8.04672
2018-06-15T01:33:55.119Z,14.484096
2018-06-15T01:34:07.524Z,16.09344
2018-06-15T01:34:19.954Z,8.04672
2018-06-15T01:34:32.354Z,8.04672
2018-06-15T01:34:44.771Z,9.656064
2018-06-15T01:34:57.194Z,8.04672
2018-06-15T01:35:09.608Z,11.265408
2018-06-15T01:35:22.015Z,6.437376
2018-06-15T01:35:34.437Z,14.484096
2018-06-15T01:35:46.858Z,11.265408
2018-06-15T01:35:59.263Z,11.265408
2018-06-15T01:36:11.676Z,14.484096
2018-06-15T01:36:24.074Z,16.09344
2018-06-15T01:36:36.484Z,14.484096
2018-06-15T01:36:48.921Z,14.484096
2018-06-15T01:37:01.370Z,11.265408
2018-06-15T01:37:13.779Z,12.874752
2018-06-15T01:37:26.264Z,16.09344
2018-06-15T01:37:38.650Z,19.312128
2018-06-15T01:37:51.090Z,11.265408
2018-06-15T01:38:03.485Z,9.656064
2018-06-15T01:38:15.896Z,11.265408
2018-06-15T01:38:28.341Z,14.484096
2018-06-15T01:38:40.745Z,8.04672
2018-06-15T01:38:53.153Z,11.265408
2018-06-15T01:39:05.552Z,6.437376
2018-06-15T01:39:17.966Z,6.437376
2018-06-15T01:39:30.361Z,3.218688
2018-06-15T01:39:42.773Z,6.437376
2018-06-15T01:39:55.179Z,4.828032
2018-06-15T01:40:07.673Z,8.04672
2018-06-15T01:40:20.102Z,8.04672
2018-06-15T01:40:32.535Z,11.265408
2018-06-15T01:40:44.930Z,17.702784
2018-06-15T01:40:57.330Z,12.874752
2018-06-15T01:41:09.724Z,16.09344
2018-06-15T01:41:22.107Z,17.702784
2018-06-15T01:41:34.535Z,20.921472
2018-06-15T01:41:46.972Z,16.09344
2018-06-15T01:41:59.404Z,14.484096
2018-06-15T01:42:11.853Z,12.874752
2018-06-15T01:42:24.233Z,11.265408
2018-06-15T01:42:36.671Z,11.265408
2018-06-15T01:42:49.075Z,11.265408
2018-06-15T01:43:01.469Z,11.265408
2018-06-15T01:43:13.899Z,12.874752
2018-06-15T01:43:26.311Z,8.04672
2018-06-15T01:43:38.708Z,8.04672
2018-06-15T01:43:51.115Z,9.656064
2018-06-15T01:44:03.532Z,8.04672
2018-06-15T01:44:15.983Z,9.656064
2018-06-15T01:44:28.387Z,8.04672
2018-06-15T01:44:40.800Z,6.437376
2018-06-15T01:44:53.221Z,3.218688
2018-06-15T01:45:05.619Z,6.437376
2018-06-15T01:45:18.029Z,9.656064
2018-06-15T01:45:30.494Z,4.828032
2018-06-15T01:45:42.921Z,4.828032
2018-06-15T01:45:55.413Z,8.04672
2018-06-15T01:46:07.853Z,11.265408
2018-06-15T01:46:20.268Z,9.656064
2018-06-15T01:46:32.684Z,9.656064
2018-06-15T01:46:45.177Z,6.437376
2018-06-15T01:46:57.584Z,11.265408
2018-06-15T01:47:09.994Z,17.702784
2018-06-15T01:47:22.410Z,12.874752
2018-06-15T01:47:34.881Z,11.265408
2018-06-15T01:47:47.263Z,11.265408
2018-06-15T01:47:59.666Z,19.312128
2018-06-15T01:48:12.078Z,11.265408
2018-06-15T01:48:24.459Z,9.656064
2018-06-15T01:48:37.217Z,8.04672
2018-06-15T01:48:49.702Z,6.437376
2018-06-15T01:49:02.132Z,9.656064
2018-06-15T01:49:14.541Z,9.656064
2018-06-15T01:49:26.934Z,8.04672
2018-06-15T01:49:39.361Z,6.437376
2018-06-15T01:49:51.780Z,6.437376
2018-06-15T01:50:04.183Z,3.218688
2018-06-15T01:50:16.596Z,8.04672
2018-06-15T01:50:29.016Z,8.04672
2018-06-15T01:50:41.415Z,11.265408
2018-06-15T01:50:53.799Z,11.265408
2018-06-15T01:51:06.201Z,9.656064
2018-06-15T01:51:18.634Z,9.656064
2018-06-15T01:51:31.083Z,6.437376
2018-06-15T01:51:43.533Z,8.04672
2018-06-15T01:51:55.942Z,11.265408
2018-06-15T01:52:08.354Z,6.437376
2018-06-15T01:52:20.752Z,6.437376
2018-06-15T01:52:33.151Z,6.437376
2018-06-15T01:52:45.553Z,8.04672
2018-06-15T01:52:57.947Z,8.04672
2018-06-15T01:53:10.346Z,9.656064
2018-06-15T01:53:22.739Z,11.265408
2018-06-15T01:53:35.187Z,9.656064
2018-06-15T01:53:47.596Z,6.437376
2018-06-15T01:54:00.025Z,6.437376
2018-06-15T01:54:12.423Z,6.437376
2018-06-15T01:54:24.822Z,14.484096
2018-06-15T01:54:37.230Z,9.656064
2018-06-15T01:54:49.635Z,6.437376
2018-06-15T01:55:02.046Z,3.218688
2018-06-15T01:55:14.444Z,4.828032
2018-06-15T01:55:26.852Z,12.874752
2018-06-15T01:55:39.263Z,11.265408
2018-06-15T01:55:51.775Z,6.437376
2018-06-15T01:56:04.188Z,8.04672
2018-06-15T01:56:16.602Z,6.437376
2018-06-15T01:56:29.009Z,3.218688
2018-06-15T01:56:41.420Z,3.218688
2018-06-15T01:56:53.821Z,8.04672
2018-06-15T01:57:06.274Z,6.437376
2018-06-15T01:57:18.734Z,6.437376
2018-06-15T01:57:31.173Z,9.656064
2018-06-15T01:57:43.566Z,8.04672
2018-06-15T01:57:55.967Z,8.04672
2018-06-15T01:58:08.359Z,6.437376
2018-06-15T01:58:20.746Z,8.04672
2018-06-15T01:58:33.128Z,9.656064
2018-06-15T01:58:45.528Z,6.437376
2018-06-15T01:58:57.913Z,1.609344
2018-06-15T01:59:10.327Z,1.609344
2018-06-15T01:59:22.756Z,3.218688
2018-06-15T01:59:35.177Z,3.218688
2018-06-15T01:59:47.573Z,1.609344
2018-06-15T01:59:59.966Z,1.609344
2018-06-15T02:00:12.399Z,3.218688
2018-06-15T02:00:24.801Z,9.656064
2018-06-15T02:00:37.213Z,8.04672
2018-06-15T02:00:49.711Z,8.04672
2018-06-15T02:01:02.401Z,8.04672
2018-06-15T02:01:15.990Z,8.04672
2018-06-15T02:01:30.047Z,8.04672
2018-06-15T02:01:42.561Z,9.656064
2018-06-15T02:01:54.997Z,9.656064
2018-06-15T02:02:07.413Z,8.04672
2018-06-15T02:02:19.837Z,6.437376
2018-06-15T02:02:32.328Z,9.656064
2018-06-15T02:02:44.778Z,6.437376
2018-06-15T02:02:57.170Z,4.828032
2018-06-15T02:03:09.574Z,3.218688
2018-06-15T02:03:21.968Z,6.437376
2018-06-15T02:03:34.398Z,6.437376
2018-06-15T02:03:46.815Z,1.609344
2018-06-15T02:03:59.243Z,3.218688
2018-06-15T02:04:11.662Z,6.437376
2018-06-15T02:04:24.081Z,8.04672
2018-06-15T02:04:36.486Z,4.828032
2018-06-15T02:04:48.923Z,4.828032
2018-06-15T02:05:01.401Z,3.218688
2018-06-15T02:05:13.840Z,1.609344
2018-06-15T02:05:26.246Z,0
2018-06-15T02:05:38.653Z,1.609344
2018-06-15T02:05:51.058Z,6.437376
2018-06-15T02:06:03.468Z,3.218688
2018-06-15T02:06:15.860Z,3.218688
2018-06-15T02:06:28.270Z,6.437376
2018-06-15T02:06:40.673Z,3.218688
2018-06-15T02:06:53.539Z,4.828032
2018-06-15T02:07:05.957Z,9.656064
2018-06-15T02:07:18.391Z,11.265408
2018-06-15T02:07:30.800Z,9.656064
2018-06-15T02:07:43.356Z,1.609344
2018-06-15T02:07:56.330Z,1.609344
2018-06-15T02:08:08.748Z,3.218688
2018-06-15T02:08:21.161Z,1.609344
2018-06-15T02:08:33.567Z,1.609344
2018-06-15T02:08:45.978Z,1.609344
2018-06-15T02:08:58.371Z,0
2018-06-15T02:09:10.762Z,1.609344
2018-06-15T02:09:23.206Z,3.218688
2018-06-15T02:09:35.606Z,3.218688
2018-06-15T02:09:48.019Z,3.218688
2018-06-15T02:10:00.421Z,3.218688
2018-06-15T02:10:12.837Z,1.609344
2018-06-15T02:10:25.680Z,0
2018-06-15T02:10:38.520Z,1.609344
2018-06-15T02:10:51.352Z,3.218688
2018-06-15T02:11:04.152Z,3.218688
2018-06-15T02:11:16.998Z,1.609344
2018-06-15T02:11:29.820Z,4.828032
2018-06-15T02:11:42.654Z,6.437376
2018-06-15T02:11:55.566Z,6.437376
2018-06-15T02:12:08.396Z,1.609344
2018-06-15T02:12:21.227Z,1.609344
2018-06-15T02:12:34.043Z,3.218688
2018-06-15T02:12:46.916Z,3.218688
2018-06-15T02:12:59.756Z,6.437376
2018-06-15T02:13:12.589Z,6.437376
2018-06-15T02:13:25.705Z,6.437376
2018-06-15T02:13:39.019Z,3.218688
2018-06-15T02:13:51.906Z,6.437376
2018-06-15T02:14:04.736Z,6.437376
2018-06-15T02:14:17.628Z,6.437376
2018-06-15T02:14:30.473Z,3.218688
2018-06-15T02:14:43.292Z,3.218688
2018-06-15T02:14:56.143Z,4.828032
2018-06-15T02:15:08.977Z,3.218688
2018-06-15T02:15:21.802Z,3.218688
2018-06-15T02:15:34.625Z,1.609344
2018-06-15T02:15:47.499Z,8.04672
2018-06-15T02:16:00.339Z,8.04672
2018-06-15T02:16:13.163Z,6.437376
2018-06-15T02:16:26.004Z,8.04672
2018-06-15T02:16:38.855Z,9.656064
2018-06-15T02:16:51.762Z,12.874752
2018-06-15T02:17:04.579Z,9.656064
2018-06-15T02:17:17.431Z,9.656064
2018-06-15T02:17:30.259Z,9.656064
2018-06-15T02:17:43.420Z,9.656064
2018-06-15T02:17:56.236Z,8.04672
2018-06-15T02:18:09.083Z,6.437376
2018-06-15T02:18:22.058Z,8.04672
2018-06-15T02:18:34.923Z,6.437376
2018-06-15T02:18:47.755Z,8.04672
2018-06-15T02:19:00.658Z,9.656064
2018-06-15T02:19:13.486Z,9.656064
2018-06-15T02:19:26.318Z,8.04672
2018-06-15T02:19:39.157Z,8.04672
2018-06-15T02:19:52.010Z,6.437376
2018-06-15T02:20:04.880Z,8.04672
2018-06-15T02:20:17.722Z,8.04672
2018-06-15T02:20:30.539Z,8.04672
2018-06-15T02:20:43.471Z,6.437376
2018-06-15T02:20:56.284Z,3.218688
2018-06-15T02:21:09.092Z,8.04672
2018-06-15T02:21:21.930Z,6.437376
2018-06-15T02:21:34.741Z,11.265408
2018-06-15T02:21:47.561Z,9.656064
2018-06-15T02:22:00.394Z,14.484096
2018-06-15T02:22:13.212Z,11.265408
2018-06-15T02:22:26.029Z,14.484096
2018-06-15T02:22:38.903Z,14.484096
2018-06-15T02:22:51.727Z,12.874752
2018-06-15T02:23:04.822Z,9.656064
2018-06-15T02:23:17.802Z,9.656064
2018-06-15T02:23:30.639Z,11.265408
2018-06-15T02:23:43.521Z,14.484096
2018-06-15T02:23:56.326Z,11.265408
2018-06-15T02:24:09.162Z,8.04672
2018-06-15T02:24:22.041Z,6.437376
2018-06-15T02:24:34.877Z,6.437376
2018-06-15T02:24:47.716Z,3.218688
2018-06-15T02:25:00.558Z,4.828032
2018-06-15T02:25:13.425Z,8.04672
2018-06-15T02:25:26.282Z,6.437376
2018-06-15T02:25:39.160Z,6.437376
2018-06-15T02:25:52.011Z,3.218688
2018-06-15T02:26:04.830Z,3.218688
2018-06-15T02:26:17.707Z,3.218688
2018-06-15T02:26:30.565Z,9.656064
2018-06-15T02:26:43.390Z,9.656064
2018-06-15T02:26:56.216Z,6.437376
2018-06-15T02:27:09.054Z,3.218688
2018-06-15T02:27:21.871Z,8.04672
2018-06-15T02:27:34.721Z,11.265408
2018-06-15T02:27:47.540Z,14.484096
2018-06-15T02:28:00.494Z,12.874752
2018-06-15T02:28:13.395Z,8.04672
2018-06-15T02:28:26.221Z,9.656064
2018-06-15T02:28:39.031Z,6.437376
2018-06-15T02:28:51.895Z,3.218688
2018-06-15T02:29:04.706Z,6.437376
2018-06-15T02:29:17.536Z,8.04672
2018-06-15T02:29:30.356Z,6.437376
2018-06-15T02:29:43.171Z,8.04672
2018-06-15T02:29:55.990Z,6.437376
2018-06-15T02:30:08.912Z,3.218688
2018-06-15T02:30:21.758Z,9.656064